createdAt,value
2022-12-17T00:01:34.409Z,96843.72
2022-12-17T00:04:01.261Z,96853.06
2022-12-17T00:06:28.102Z,96844.41
2022-12-17T00:08:54.977Z,96850.09
2022-12-17T00:11:21.630Z,96854.16
2022-12-17T00:13:48.285Z,96858.72
2022-12-17T00:16:15.863Z,96863.16
2022-12-17T00:18:42.537Z,96865.81
2022-12-17T00:21:09.219Z,96874.31
2022-12-17T00:23:36.898Z,96872.19
2022-12-17T00:26:03.893Z,96876.41
2022-12-17T00:28:30.688Z,96878.88
2022-12-17T00:30:57.311Z,96866.66
2022-12-17T00:33:23.939Z,96889.81
2022-12-17T00:35:52.107Z,96874.34
2022-12-17T00:38:18.819Z,96884.44
2022-12-17T00:40:50.634Z,96885.50
2022-12-17T00:43:17.405Z,96880.56
2022-12-17T00:45:44.046Z,96886.56
2022-12-17T00:48:10.684Z,96887.06
2022-12-17T00:50:37.318Z,96891.13
2022-12-17T00:53:03.937Z,96888.13
2022-12-17T00:55:30.824Z,96892.94
2022-12-17T00:57:57.766Z,96899.16
2022-12-17T01:00:24.403Z,96904.06
2022-12-17T01:02:51.121Z,96909.59
2022-12-17T01:05:18.776Z,96904.91
2022-12-17T01:07:45.442Z,96903.09
2022-12-17T01:10:12.077Z,96907.78
2022-12-17T01:12:38.706Z,96912.59
2022-12-17T01:15:05.937Z,96908.03
2022-12-17T01:17:32.591Z,96913.44
2022-12-17T01:19:59.372Z,96923.84
2022-12-17T01:22:26.022Z,96914.38
2022-12-17T01:24:52.680Z,96920.25
2022-12-17T01:27:22.786Z,96934.59
2022-12-17T01:29:49.420Z,96929.34
2022-12-17T01:32:16.119Z,96938.22
2022-12-17T01:34:42.735Z,96939.16
2022-12-17T01:37:09.347Z,96943.84
2022-12-17T01:39:35.973Z,96944.09
2022-12-17T01:42:02.607Z,96950.91
2022-12-17T01:44:56.637Z,96946.09
2022-12-17T01:47:35.288Z,96941.66
2022-12-17T01:50:01.934Z,96953.16
2022-12-17T01:52:28.555Z,96955.66
2022-12-17T01:54:55.183Z,96963.84
2022-12-17T01:57:21.821Z,96957.47
2022-12-17T01:59:58.815Z,96960.59
2022-12-17T02:02:25.656Z,96959.00
2022-12-17T02:04:52.386Z,96957.13
2022-12-17T02:07:28.033Z,96962.13
2022-12-17T02:10:09.722Z,96957.84
2022-12-17T02:12:42.569Z,96962.41
2022-12-17T02:15:26.754Z,96959.13
2022-12-17T02:17:56.661Z,96956.75
2022-12-17T02:20:38.574Z,96957.34
2022-12-17T02:23:09.582Z,96965.13
2022-12-17T02:25:44.599Z,96962.41
2022-12-17T02:28:11.218Z,96968.03
2022-12-17T02:30:37.866Z,96971.13
2022-12-17T02:33:04.523Z,96973.00
2022-12-17T02:35:41.096Z,96979.97
2022-12-17T02:38:24.292Z,96988.81
2022-12-17T02:40:50.915Z,96975.31
2022-12-17T02:43:17.533Z,96981.97
2022-12-17T02:45:44.213Z,96991.53
2022-12-17T02:48:10.848Z,96999.94
2022-12-17T02:50:37.465Z,96991.19
2022-12-17T02:53:04.092Z,96996.44
2022-12-17T02:55:30.713Z,97004.03
2022-12-17T02:57:57.422Z,96990.53
2022-12-17T03:00:24.033Z,97009.44
2022-12-17T03:02:50.776Z,96999.75
2022-12-17T03:05:43.568Z,97003.69
2022-12-17T03:08:04.244Z,96995.59
2022-12-17T03:10:30.894Z,97001.78
2022-12-17T03:12:57.506Z,96992.84
2022-12-17T03:15:24.213Z,97002.63
2022-12-17T03:17:50.859Z,97000.84
2022-12-17T03:20:17.519Z,97006.38
2022-12-17T03:22:44.140Z,96999.53
2022-12-17T03:25:10.771Z,97008.84
2022-12-17T03:27:37.682Z,97006.38
2022-12-17T03:30:04.696Z,97010.31
2022-12-17T03:32:31.346Z,97005.66
2022-12-17T03:34:58.003Z,97010.31
2022-12-17T03:37:24.627Z,97014.94
2022-12-17T03:39:51.261Z,97018.78
2022-12-17T03:42:17.876Z,97025.47
2022-12-17T03:44:44.505Z,97032.72
2022-12-17T03:47:11.126Z,97030.44
2022-12-17T03:49:37.755Z,97037.97
2022-12-17T03:52:04.378Z,97034.47
2022-12-17T03:54:31.001Z,97046.06
2022-12-17T03:56:57.630Z,97041.97
2022-12-17T03:59:24.277Z,97041.69
2022-12-17T04:01:50.986Z,97041.16
2022-12-17T04:04:17.647Z,97036.91
2022-12-17T04:06:44.277Z,97045.53
2022-12-17T04:09:10.907Z,97036.72
2022-12-17T04:11:37.543Z,97042.19
2022-12-17T04:14:04.169Z,97029.03
2022-12-17T04:16:30.801Z,97036.44
2022-12-17T04:18:57.449Z,97038.00
2022-12-17T04:21:24.089Z,97039.25
2022-12-17T04:23:50.721Z,97037.56
2022-12-17T04:26:17.337Z,97043.38
2022-12-17T04:28:43.954Z,97050.50
2022-12-17T04:31:10.670Z,97045.47
2022-12-17T04:33:37.473Z,97049.13
2022-12-17T04:36:04.342Z,97043.25
2022-12-17T04:38:30.953Z,97049.25
2022-12-17T04:40:57.576Z,97045.53
2022-12-17T04:43:24.222Z,97053.69
2022-12-17T04:45:52.111Z,97058.16
2022-12-17T04:48:18.861Z,97065.41
2022-12-17T04:50:45.532Z,97066.84
2022-12-17T04:53:12.186Z,97081.38
2022-12-17T04:55:38.836Z,97073.28
2022-12-17T04:58:05.963Z,97082.03
2022-12-17T05:00:32.615Z,97073.41
2022-12-17T05:03:11.263Z,97074.97
2022-12-17T05:05:37.910Z,97078.94
2022-12-17T05:08:04.602Z,97083.03
2022-12-17T05:10:31.216Z,97076.81
2022-12-17T05:13:00.768Z,97081.97
2022-12-17T05:15:27.404Z,97087.28
2022-12-17T05:17:54.033Z,97095.25
2022-12-17T05:20:20.680Z,97083.25
2022-12-17T05:22:47.318Z,97091.91
2022-12-17T05:25:13.961Z,97089.94
2022-12-17T05:27:40.584Z,97090.53
2022-12-17T05:30:07.694Z,97082.53
2022-12-17T05:32:34.346Z,97091.72
2022-12-17T05:35:00.969Z,97093.41
2022-12-17T05:37:27.594Z,97092.44
2022-12-17T05:39:54.237Z,97101.41
2022-12-17T05:42:23.809Z,97096.75
2022-12-17T05:44:50.608Z,97100.22
2022-12-17T05:47:17.230Z,97104.44
2022-12-17T05:49:43.846Z,97110.53
2022-12-17T05:52:10.480Z,97109.19
2022-12-17T05:54:37.121Z,97104.78
2022-12-17T05:57:03.752Z,97107.22
2022-12-17T05:59:30.361Z,97115.13
2022-12-17T06:01:57.111Z,97107.00
2022-12-17T06:04:23.779Z,97117.28
2022-12-17T06:06:50.407Z,97124.13
2022-12-17T06:09:17.048Z,97127.81
2022-12-17T06:11:43.688Z,97120.69
2022-12-17T06:14:10.314Z,97121.28
2022-12-17T06:16:37.047Z,97119.84
2022-12-17T06:19:03.715Z,97124.66
2022-12-17T06:21:30.336Z,97125.31
2022-12-17T06:23:57.269Z,97118.72
2022-12-17T06:26:23.910Z,97133.41
2022-12-17T06:28:50.554Z,97122.84
2022-12-17T06:31:17.324Z,97135.84
2022-12-17T06:33:43.975Z,97139.19
2022-12-17T06:36:10.595Z,97139.06
2022-12-17T06:38:37.245Z,97150.88
2022-12-17T06:41:03.881Z,97155.59
2022-12-17T06:43:30.513Z,97152.00
2022-12-17T06:45:57.165Z,97155.84
2022-12-17T06:48:23.793Z,97160.47
2022-12-17T06:50:50.935Z,97166.78
2022-12-17T06:53:17.589Z,97159.00
2022-12-17T06:55:44.253Z,97168.78
2022-12-17T06:58:10.874Z,97163.38
2022-12-17T07:00:37.545Z,97174.88
2022-12-17T07:03:04.276Z,97176.38
2022-12-17T07:05:31.049Z,97177.44
2022-12-17T07:08:00.874Z,97182.81
2022-12-17T07:10:27.511Z,97182.16
2022-12-17T07:12:54.166Z,97194.50
2022-12-17T07:15:20.837Z,97199.75
2022-12-17T07:17:57.080Z,97206.28
2022-12-17T07:20:23.716Z,97213.53
2022-12-17T07:22:55.086Z,97216.19
2022-12-17T07:25:21.761Z,97227.06
2022-12-17T07:27:55.305Z,97233.47
2022-12-17T07:30:21.941Z,97241.16
2022-12-17T07:32:57.260Z,97248.31
2022-12-17T07:35:23.900Z,97257.69
2022-12-17T07:37:50.520Z,97255.91
2022-12-17T07:40:17.169Z,97261.59
2022-12-17T07:42:43.813Z,97269.28
2022-12-17T07:45:10.533Z,97268.47
2022-12-17T07:47:37.187Z,97276.13
2022-12-17T07:50:03.956Z,97270.66
2022-12-17T07:52:30.594Z,97267.47
2022-12-17T07:54:57.218Z,97272.88
2022-12-17T07:57:23.830Z,97278.13
2022-12-17T07:59:50.468Z,97280.44
2022-12-17T08:02:17.287Z,97281.91
2022-12-17T08:04:44.107Z,97282.66
2022-12-17T08:07:14.045Z,97304.88
2022-12-17T08:09:40.914Z,97305.63
2022-12-17T08:12:07.559Z,97315.50
2022-12-17T08:14:34.179Z,97321.84
2022-12-17T08:17:00.990Z,97321.41
2022-12-17T08:19:27.745Z,97322.81
2022-12-17T08:21:54.394Z,97329.84
2022-12-17T08:24:21.037Z,97332.81
2022-12-17T08:26:48.456Z,97333.88
2022-12-17T08:29:15.290Z,97336.19
2022-12-17T08:31:41.910Z,97338.59
2022-12-17T08:34:08.562Z,97329.94
2022-12-17T08:36:35.220Z,97343.13
2022-12-17T08:39:01.845Z,97338.69
2022-12-17T08:41:28.508Z,97337.53
2022-12-17T08:43:55.177Z,97343.44
2022-12-17T08:48:48.577Z,97337.44
2022-12-17T08:51:15.221Z,97341.31
2022-12-17T08:53:42.485Z,97341.53
2022-12-17T08:56:09.282Z,97341.94
2022-12-17T08:58:35.912Z,97344.59
2022-12-17T09:01:02.565Z,97340.69
2022-12-17T09:03:29.252Z,97352.06
2022-12-17T09:05:55.903Z,97353.75
2022-12-17T09:08:22.573Z,97353.44
2022-12-17T09:10:49.237Z,97358.28
2022-12-17T09:13:15.855Z,97366.50
2022-12-17T09:15:42.485Z,97358.34
2022-12-17T09:18:09.122Z,97360.16
2022-12-17T09:20:35.785Z,97358.69
2022-12-17T09:23:02.429Z,97359.50
2022-12-17T09:25:29.068Z,97351.28
2022-12-17T09:28:00.518Z,97357.09
2022-12-17T09:30:27.234Z,97361.72
2022-12-17T09:32:53.913Z,97351.41
2022-12-17T09:35:20.554Z,97355.59
2022-12-17T09:37:56.625Z,97365.00
2022-12-17T09:40:23.817Z,97364.78
2022-12-17T09:43:04.098Z,97359.91
2022-12-17T09:45:58.462Z,97357.59
2022-12-17T09:48:32.684Z,97363.50
2022-12-17T09:50:59.501Z,97362.13
2022-12-17T09:53:33.009Z,97363.50
2022-12-17T09:55:59.762Z,97358.25
2022-12-17T09:58:27.011Z,97364.88
2022-12-17T10:00:57.647Z,97363.44
2022-12-17T10:03:27.482Z,97372.81
2022-12-17T10:05:54.170Z,97368.91
2022-12-17T10:08:21.089Z,97369.09
2022-12-17T10:10:47.706Z,97364.56
2022-12-17T10:13:16.058Z,97363.91
2022-12-17T10:15:43.172Z,97361.91
2022-12-17T10:18:11.075Z,97360.00
2022-12-17T10:20:52.624Z,97372.22
2022-12-17T10:23:26.489Z,97364.19
2022-12-17T10:25:54.251Z,97356.00
2022-12-17T10:28:25.026Z,97368.13
2022-12-17T10:30:51.700Z,97364.44
2022-12-17T10:33:19.564Z,97369.16
2022-12-17T10:35:46.196Z,97372.91
2022-12-17T10:38:21.140Z,97365.84
2022-12-17T10:40:47.815Z,97374.50
2022-12-17T10:43:40.669Z,97371.34
2022-12-17T10:46:07.333Z,97380.94
2022-12-17T10:48:33.995Z,97375.63
2022-12-17T10:51:00.654Z,97375.00
2022-12-17T10:53:27.294Z,97370.81
2022-12-17T10:55:56.932Z,97378.66
2022-12-17T10:58:25.783Z,97379.56
2022-12-17T11:00:52.428Z,97375.13
2022-12-17T11:03:52.582Z,97372.53
2022-12-17T11:06:27.939Z,97364.28
2022-12-17T11:08:54.660Z,97360.75
2022-12-17T11:11:21.302Z,97356.22
2022-12-17T11:13:48.579Z,97365.22
2022-12-17T11:16:36.631Z,97355.91
2022-12-17T11:19:46.479Z,97358.69
2022-12-17T11:22:39.627Z,97366.66
2022-12-17T11:25:27.253Z,97356.66
2022-12-17T11:28:03.482Z,97370.53
2022-12-17T11:30:31.101Z,97370.28
2022-12-17T11:33:21.895Z,97370.69
2022-12-17T11:36:11.450Z,97369.22
2022-12-17T11:38:40.034Z,97366.81
2022-12-17T11:41:21.451Z,97368.53
2022-12-17T11:44:11.497Z,97365.66
2022-12-17T11:46:49.708Z,97362.19
2022-12-17T11:49:40.425Z,97367.34
2022-12-17T11:52:35.792Z,97362.34
2022-12-17T11:55:26.250Z,97362.97
2022-12-17T11:57:58.040Z,97360.88
2022-12-17T12:00:24.674Z,97360.09
2022-12-17T12:03:10.395Z,97356.59
2022-12-17T12:05:58.273Z,97349.97
2022-12-17T12:08:30.542Z,97344.91
2022-12-17T12:11:24.662Z,97346.28
2022-12-17T12:13:58.399Z,97347.47
2022-12-17T12:17:12.981Z,97359.13
2022-12-17T12:19:51.485Z,97363.84
2022-12-17T12:22:32.789Z,97354.97
2022-12-17T12:25:15.885Z,97363.50
2022-12-17T12:27:48.510Z,97355.00
2022-12-17T12:30:23.504Z,97358.47
2022-12-17T12:33:47.443Z,97362.94
2022-12-17T12:36:15.416Z,97368.59
2022-12-17T12:38:46.385Z,97367.63
2022-12-17T12:41:56.571Z,97373.13
2022-12-17T12:44:29.067Z,97360.88
2022-12-17T12:47:00.772Z,97354.28
2022-12-17T12:49:31.546Z,97358.84
2022-12-17T12:51:58.698Z,97354.75
2022-12-17T12:54:33.063Z,97362.09
2022-12-17T12:56:59.710Z,97363.41
2022-12-17T12:59:31.020Z,97353.91
2022-12-17T13:01:57.802Z,97358.38
2022-12-17T13:04:36.041Z,97358.38
2022-12-17T13:07:02.663Z,97359.34
2022-12-17T13:09:34.271Z,97368.81
2022-12-17T13:12:04.523Z,97356.81
2022-12-17T13:14:55.859Z,97359.13
2022-12-17T13:17:34.589Z,97363.44
2022-12-17T13:20:22.430Z,97361.38
2022-12-17T13:22:53.717Z,97372.09
2022-12-17T13:25:23.272Z,97371.25
2022-12-17T13:27:50.144Z,97375.69
2022-12-17T13:30:20.757Z,97378.81
2022-12-17T13:33:08.581Z,97378.34
2022-12-17T13:36:12.950Z,97369.19
2022-12-17T13:38:45.651Z,97364.88
2022-12-17T13:41:13.567Z,97373.28
2022-12-17T13:44:01.613Z,97373.97
2022-12-17T13:46:30.023Z,97369.06
2022-12-17T13:48:58.283Z,97372.78
2022-12-17T13:51:29.488Z,97378.34
2022-12-17T13:54:01.512Z,97376.88
2022-12-17T13:56:34.879Z,97383.63
2022-12-17T13:59:08.376Z,97387.94
2022-12-17T14:01:47.036Z,97381.06
2022-12-17T14:04:29.472Z,97381.91
2022-12-17T14:06:57.904Z,97389.81
2022-12-17T14:09:32.602Z,97384.59
2022-12-17T14:11:59.300Z,97391.19
2022-12-17T14:14:33.856Z,97391.56
2022-12-17T14:17:00.620Z,97399.72
2022-12-17T14:19:27.441Z,97401.28
2022-12-17T14:21:54.223Z,97397.91
2022-12-17T14:24:21.857Z,97404.78
2022-12-17T14:26:49.974Z,97408.59
2022-12-17T14:29:23.464Z,97416.78
2022-12-17T14:31:54.714Z,97409.13
2022-12-17T14:34:21.411Z,97405.38
2022-12-17T14:36:56.565Z,97413.41
2022-12-17T14:39:25.141Z,97406.19
2022-12-17T14:41:51.854Z,97418.91
2022-12-17T14:44:26.083Z,97409.78
2022-12-17T14:46:54.978Z,97423.44
2022-12-17T14:49:21.600Z,97426.88
2022-12-17T14:51:48.381Z,97421.16
2022-12-17T14:54:14.861Z,97430.13
2022-12-17T14:56:41.727Z,97428.47
2022-12-17T14:59:27.055Z,97416.63
2022-12-17T15:01:56.183Z,97419.56
2022-12-17T15:04:23.252Z,97424.41
2022-12-17T15:06:49.908Z,97427.75
2022-12-17T15:09:16.555Z,97428.41
2022-12-17T15:11:43.204Z,97432.09
2022-12-17T15:14:09.865Z,97423.56
2022-12-17T15:16:36.524Z,97425.19
2022-12-17T15:19:03.194Z,97429.03
2022-12-17T15:21:29.830Z,97433.38
2022-12-17T15:23:56.449Z,97436.34
2022-12-17T15:26:23.093Z,97435.00
2022-12-17T15:28:49.706Z,97445.19
2022-12-17T15:31:19.563Z,97433.16
2022-12-17T15:33:48.586Z,97442.13
2022-12-17T15:36:15.248Z,97436.66
2022-12-17T15:38:41.878Z,97434.31
2022-12-17T15:41:08.493Z,97431.25
2022-12-17T15:43:35.247Z,97437.91
2022-12-17T15:46:01.999Z,97445.53
2022-12-17T15:48:28.690Z,97446.56
2022-12-17T15:50:55.340Z,97443.56
2022-12-17T15:53:21.973Z,97437.75
2022-12-17T15:55:48.592Z,97452.75
2022-12-17T15:58:15.237Z,97449.22
2022-12-17T16:00:41.870Z,97452.38
2022-12-17T16:03:08.671Z,97454.25
2022-12-17T16:05:35.399Z,97448.13
2022-12-17T16:08:02.044Z,97453.22
2022-12-17T16:10:28.917Z,97452.25
2022-12-17T16:12:55.552Z,97468.41
2022-12-17T16:15:22.194Z,97456.81
2022-12-17T16:17:48.827Z,97450.97
2022-12-17T16:20:15.476Z,97452.56
2022-12-17T16:22:42.139Z,97456.25
2022-12-17T16:25:08.855Z,97448.44
2022-12-17T16:27:35.593Z,97444.94
2022-12-17T16:30:02.343Z,97447.72
2022-12-17T16:32:34.567Z,97430.50
2022-12-17T16:35:02.930Z,97454.56
2022-12-17T16:37:29.553Z,97450.28
2022-12-17T16:39:59.990Z,97457.31
2022-12-17T16:42:27.128Z,97457.75
2022-12-17T16:44:53.743Z,97465.91
2022-12-17T16:47:20.772Z,97454.84
2022-12-17T16:49:50.036Z,97460.19
2022-12-17T16:52:16.690Z,97455.03
2022-12-17T16:54:43.349Z,97453.81
2022-12-17T16:57:09.982Z,97457.00
2022-12-17T16:59:36.630Z,97461.53
2022-12-17T17:02:03.415Z,97458.69
2022-12-17T17:04:30.197Z,97462.47
2022-12-17T17:06:57.095Z,97457.72
2022-12-17T17:09:24.255Z,97463.25
2022-12-17T17:11:52.079Z,97475.00
2022-12-17T17:14:19.174Z,97476.16
2022-12-17T17:16:45.807Z,97477.25
2022-12-17T17:19:12.453Z,97475.13
2022-12-17T17:21:40.425Z,97476.09
2022-12-17T17:24:15.365Z,97488.16
2022-12-17T17:26:45.292Z,97497.75
2022-12-17T17:29:12.015Z,97499.91
2022-12-17T17:34:25.363Z,97496.50
2022-12-17T17:36:52.008Z,97504.00
2022-12-17T17:39:18.660Z,97503.44
2022-12-17T17:41:45.295Z,97493.97
2022-12-17T17:44:12.539Z,97497.88
2022-12-17T17:46:39.346Z,97504.34
2022-12-17T17:49:06.804Z,97502.91
2022-12-17T17:52:07.945Z,97505.03
2022-12-17T17:54:21.588Z,97503.56
2022-12-17T17:56:48.219Z,97502.63
2022-12-17T17:59:15.612Z,97500.31
2022-12-17T18:01:44.187Z,97503.16
2022-12-17T18:04:12.928Z,97505.06
2022-12-17T18:06:57.429Z,97504.22
2022-12-17T18:09:27.841Z,97501.69
2022-12-17T18:11:54.459Z,97505.25
2022-12-17T18:14:21.088Z,97505.59
2022-12-17T18:16:47.945Z,97504.34
2022-12-17T18:19:21.793Z,97517.44
2022-12-17T18:21:48.423Z,97523.25
2022-12-17T18:24:16.839Z,97525.22
2022-12-17T18:26:44.190Z,97521.09
2022-12-17T18:29:18.981Z,97528.00
2022-12-17T18:31:51.353Z,97525.66
2022-12-17T18:34:19.540Z,97527.47
2022-12-17T18:36:46.363Z,97528.84
2022-12-17T18:39:14.519Z,97536.22
2022-12-17T18:41:41.226Z,97528.84
2022-12-17T18:44:07.854Z,97526.31
2022-12-17T18:46:34.621Z,97533.38
2022-12-17T18:49:06.052Z,97533.28
2022-12-17T18:51:33.882Z,97535.34
2022-12-17T18:54:01.217Z,97536.53
2022-12-17T18:56:59.326Z,97544.03
2022-12-17T18:59:24.222Z,97547.81
2022-12-17T19:01:54.156Z,97547.94
2022-12-17T19:04:20.879Z,97559.63
2022-12-17T19:06:47.773Z,97561.56
2022-12-17T19:09:25.397Z,97560.59
2022-12-17T19:11:52.154Z,97571.56
2022-12-17T19:14:18.831Z,97567.03
2022-12-17T19:16:45.598Z,97568.44
2022-12-17T19:19:12.412Z,97569.16
2022-12-17T19:21:39.093Z,97573.06
2022-12-17T19:24:07.392Z,97579.59
2022-12-17T19:26:34.053Z,97576.22
2022-12-17T19:29:00.838Z,97584.25
2022-12-17T19:31:29.026Z,97576.63
2022-12-17T19:33:56.345Z,97582.44
2022-12-17T19:36:28.006Z,97594.31
2022-12-17T19:38:57.706Z,97597.69
2022-12-17T19:41:24.740Z,97601.91
2022-12-17T19:43:55.722Z,97602.03
2022-12-17T19:46:22.448Z,97600.75
2022-12-17T19:48:49.588Z,97610.78
2022-12-17T19:51:18.014Z,97597.56
2022-12-17T19:53:44.827Z,97605.94
2022-12-17T19:56:16.280Z,97604.75
2022-12-17T19:58:42.987Z,97609.94
2022-12-17T20:01:16.745Z,97617.88
2022-12-17T20:03:44.201Z,97616.69
2022-12-17T20:06:11.468Z,97623.78
2022-12-17T20:08:38.562Z,97637.00
2022-12-17T20:11:06.787Z,97634.34
2022-12-17T20:13:33.430Z,97633.50
2022-12-17T20:16:04.071Z,97628.50
2022-12-17T20:18:30.728Z,97642.91
2022-12-17T20:21:03.968Z,97649.75
2022-12-17T20:23:30.618Z,97647.44
2022-12-17T20:26:23.471Z,97642.91
2022-12-17T20:28:50.157Z,97649.31
2022-12-17T20:31:16.881Z,97654.72
2022-12-17T20:33:43.717Z,97649.53
2022-12-17T20:36:12.252Z,97640.38
2022-12-17T20:38:39.239Z,97646.59
2022-12-17T20:41:17.527Z,97653.13
2022-12-17T20:43:44.284Z,97644.25
2022-12-17T20:46:11.122Z,97630.97
2022-12-17T20:48:38.636Z,97628.22
2022-12-17T20:51:07.091Z,97635.28
2022-12-17T20:53:34.184Z,97641.09
2022-12-17T20:56:05.293Z,97648.41
2022-12-17T20:58:31.916Z,97639.94
2022-12-17T21:01:03.417Z,97648.41
2022-12-17T21:03:30.140Z,97659.47
2022-12-17T21:05:56.836Z,97658.22
2022-12-17T21:08:23.489Z,97666.31
2022-12-17T21:10:56.004Z,97666.78
2022-12-17T21:13:22.665Z,97672.66
2022-12-17T21:15:50.031Z,97672.56
2022-12-17T21:18:16.650Z,97680.47
2022-12-17T21:20:43.869Z,97677.94
2022-12-17T21:23:10.533Z,97686.81
2022-12-17T21:25:39.951Z,97690.94
2022-12-17T21:28:06.753Z,97692.31
2022-12-17T21:30:36.207Z,97684.59
2022-12-17T21:33:02.947Z,97674.34
2022-12-17T21:35:29.613Z,97680.03
2022-12-17T21:37:56.374Z,97679.00
2022-12-17T21:40:23.062Z,97688.91
2022-12-17T21:42:50.761Z,97701.47
2022-12-17T21:45:17.430Z,97697.97
2022-12-17T21:47:44.245Z,97696.19
2022-12-17T21:50:10.890Z,97695.34
2022-12-17T21:52:37.524Z,97697.25
2022-12-17T21:55:04.495Z,97690.41
2022-12-17T21:57:31.127Z,97683.84
2022-12-17T21:59:57.766Z,97685.94
2022-12-17T22:02:24.553Z,97691.19
2022-12-17T22:04:51.340Z,97686.47
2022-12-17T22:07:19.705Z,97677.03
2022-12-17T22:10:13.269Z,97676.31
2022-12-17T22:12:43.065Z,97663.53
2022-12-17T22:15:10.495Z,97667.75
2022-12-17T22:17:37.977Z,97659.63
2022-12-17T22:20:05.224Z,97665.19
2022-12-17T22:22:31.898Z,97645.97
2022-12-17T22:25:03.056Z,97654.56
2022-12-17T22:27:34.537Z,97660.63
2022-12-17T22:30:01.339Z,97661.38
2022-12-17T22:32:28.213Z,97666.84
2022-12-17T22:36:21.341Z,97661.03
2022-12-17T22:41:50.487Z,97674.50
2022-12-17T22:44:30.354Z,97679.50
2022-12-17T22:44:49.263Z,97681.56
2022-12-17T22:46:03.286Z,97681.19
2022-12-17T22:48:31.547Z,97678.66
2022-12-17T22:51:08.651Z,97685.03
2022-12-17T22:53:42.759Z,97697.69
2022-12-17T22:56:18.596Z,97700.97
2022-12-17T22:58:56.881Z,97707.28
2022-12-17T23:01:23.612Z,97720.81
2022-12-17T23:03:53.883Z,97735.13
2022-12-17T23:06:20.984Z,97737.88
2022-12-17T23:08:47.630Z,97746.44
2022-12-17T23:11:17.883Z,97739.44
2022-12-17T23:13:44.590Z,97744.50
2022-12-17T23:16:12.172Z,97746.41
2022-12-17T23:18:39.666Z,97738.75
2022-12-17T23:21:26.500Z,97730.47
2022-12-17T23:23:53.692Z,97722.94
2022-12-17T23:26:25.034Z,97709.47
2022-12-17T23:28:57.735Z,97707.47
2022-12-17T23:31:24.612Z,97695.28
2022-12-17T23:33:51.700Z,97698.13
2022-12-17T23:36:21.651Z,97696.94
2022-12-17T23:38:48.509Z,97706.22
2022-12-17T23:41:18.188Z,97707.91
2022-12-17T23:43:45.029Z,97712.59
2022-12-17T23:46:11.974Z,97718.38
2022-12-17T23:48:45.147Z,97728.47
2022-12-17T23:51:12.729Z,97739.22
2022-12-17T23:53:39.728Z,97737.19
2022-12-17T23:56:10.495Z,97742.53
2022-12-17T23:58:37.538Z,97749.69
